KMXO/MXO METAR and TAF weather

Enter ICAO airport designator
Station Type Date Time Source
KMXO METAR 2019/12/07 17:35 UTC NOAA

KMXO 071735Z AUTO 19012KT 10SM CLR 03/M02 A3025 RMK AO2


Station Type Date Time Source
KMXO Decoded METAR 2019/12/07 17:35 UTC NOAA

Monticello Municipal, IA, United States (KMXO) 42-14N 091-10W
Dec 07, 2019 - 12:35 PM EST / 2019.12.07 1735 UTC
Wind: from the S (190 degrees) at 14 MPH (12 KT):0
Visibility: 10 mile(s):0
Sky conditions: clear
Temperature: 37 F (3 C)
Dew Point: 28 F (-2 C)
Relative Humidity: 69%
Pressure (altimeter): 30.25 in. Hg (1024 hPa)
ob: KMXO 071735Z AUTO 19012KT 10SM CLR 03/M02 A3025 RMK AO2
cycle: 17

Station Type Date Time Source
KMXO TAF UTC NOAA

Error!

Example: see airport list